Time;durP1;ratioP1;P1;durP2;ratioP2;P2;SDS_P1;SDS_P2;PMS_P1;PMS_P2;Temp;Humidity;BMP_temperature;BMP_pressure;BME280_temperature;BME280_humidity;BME280_pressure;Samples;Min_cycle;Max_cycle;Signal;HPM_P1;HPM_P2
2021/01/05 00:00:19;;;;;;;48.17;20.55;;;;;;;0.99;100.00;100943.91;4943397;28;20113;-52
2021/01/05 00:02:46;;;;;;;45.47;20.88;;;;;;;1.12;100.00;100945.63;4944956;28;20071;-50
2021/01/05 00:05:14;;;;;;;56.90;22.63;;;;;;;0.37;100.00;100951.41;4943114;28;20055;-48
2021/01/05 00:07:41;;;;;;;55.30;21.63;;;;;;;0.48;100.00;100953.03;4943079;28;20462;-53
2021/01/05 00:10:09;;;;;;;55.90;22.42;;;;;;;0.50;100.00;100950.59;4944152;28;20515;-49
2021/01/05 00:12:36;;;;;;;58.20;23.55;;;;;;;0.57;100.00;100947.75;4942489;28;20564;-51
2021/01/05 00:15:04;;;;;;;51.53;22.70;;;;;;;0.74;100.00;100951.47;4946741;28;20059;-48
2021/01/05 00:17:31;;;;;;;60.45;24.55;;;;;;;0.56;100.00;100951.06;4942401;28;20066;-50
2021/01/05 00:19:57;;;;;;;54.35;22.58;;;;;;;0.83;100.00;100948.66;4945600;28;20059;-51
2021/01/05 00:22:24;;;;;;;56.97;23.05;;;;;;;0.65;100.00;100951.69;4942005;28;20047;-52
2021/01/05 00:24:51;;;;;;;52.63;21.02;;;;;;;0.72;100.00;100946.28;4945145;28;20062;-50
2021/01/05 00:27:17;;;;;;;49.72;21.95;;;;;;;0.58;100.00;100946.97;4942460;28;20583;-51
2021/01/05 00:29:43;;;;;;;57.45;22.50;;;;;;;0.61;100.00;100946.34;4944006;28;20855;-49
2021/01/05 00:32:14;;;;;;;54.15;23.10;;;;;;;0.82;100.00;100942.75;4943693;28;20110;-52
2021/01/05 00:34:42;;;;;;;47.95;21.20;;;;;;;1.02;100.00;100934.06;4943062;28;20047;-48
2021/01/05 00:37:10;;;;;;;52.25;22.52;;;;;;;0.67;100.00;100937.53;4943825;28;20058;-48
2021/01/05 00:39:36;;;;;;;53.97;22.67;;;;;;;0.56;100.00;100938.47;4942115;28;20055;-54
2021/01/05 00:42:02;;;;;;;51.47;21.42;;;;;;;0.62;100.00;100945.56;4946899;28;20134;-47
2021/01/05 00:44:30;;;;;;;48.20;21.50;;;;;;;0.98;100.00;100949.72;4943713;28;20417;-47
2021/01/05 00:46:56;;;;;;;56.50;23.85;;;;;;;0.71;100.00;100948.72;4941989;28;20039;-50
2021/01/05 00:49:23;;;;;;;58.90;23.67;;;;;;;0.82;100.00;100952.84;4941715;28;20121;-50
2021/01/05 00:51:49;;;;;;;48.55;21.58;;;;;;;0.69;100.00;100948.63;4944708;28;20047;-53
2021/01/05 00:54:16;;;;;;;52.55;22.60;;;;;;;1.07;100.00;100945.31;4944766;28;20051;-51
2021/01/05 00:57:06;;;;;;;60.22;22.55;;;;;;;0.73;100.00;100949.69;4943091;28;20193;-51
2021/01/05 00:59:32;;;;;;;57.00;21.63;;;;;;;0.62;100.00;100938.88;4942699;28;20142;-51
2021/01/05 01:01:59;;;;;;;57.85;23.15;;;;;;;0.69;100.00;100948.63;4945133;28;20055;-52
2021/01/05 01:04:27;;;;;;;56.55;23.65;;;;;;;0.50;100.00;100950.59;4941302;28;20119;-50
2021/01/05 01:06:54;;;;;;;61.70;24.98;;;;;;;0.45;100.00;100946.91;4944689;28;20650;-52
2021/01/05 01:09:21;;;;;;;59.22;22.23;;;;;;;0.69;100.00;100952.75;4941806;28;20047;-47
2021/01/05 01:12:05;;;;;;;59.70;24.98;;;;;;;0.80;100.00;100961.09;4944082;28;20507;-55
2021/01/05 01:14:33;;;;;;;57.50;23.25;;;;;;;0.73;100.00;100959.75;4942459;28;20063;-51
2021/01/05 01:17:00;;;;;;;53.55;24.45;;;;;;;0.46;100.00;100963.75;4945296;28;20054;-51
2021/01/05 01:19:27;;;;;;;58.90;24.15;;;;;;;1.12;100.00;100965.81;4940972;28;20044;-50
2021/01/05 01:21:55;;;;;;;53.55;23.05;;;;;;;1.09;100.00;100968.09;4948452;28;20571;-51
2021/01/05 01:24:23;;;;;;;56.78;23.13;;;;;;;1.15;100.00;100973.56;4945249;28;20059;-50
2021/01/05 01:26:50;;;;;;;49.08;22.60;;;;;;;1.22;100.00;100971.56;4947033;28;20059;-47
2021/01/05 01:29:18;;;;;;;58.90;21.95;;;;;;;0.78;100.00;100968.50;4947788;28;20154;-53
2021/01/05 01:31:45;;;;;;;48.65;21.27;;;;;;;1.16;100.00;100972.81;4947766;28;20091;-53
2021/01/05 01:34:14;;;;;;;67.00;24.70;;;;;;;0.58;100.00;100968.78;4943810;28;20133;-49
2021/01/05 01:36:41;;;;;;;56.25;23.20;;;;;;;0.82;100.00;100972.13;4946550;28;20125;-50
2021/01/05 01:39:07;;;;;;;59.63;24.10;;;;;;;0.82;100.00;100974.66;4948019;28;20114;-53
2021/01/05 01:41:34;;;;;;;65.75;24.50;;;;;;;0.23;100.00;100970.59;4944937;28;20051;-47
2021/01/05 01:44:02;;;;;;;56.38;23.90;;;;;;;0.70;100.00;100973.06;4948571;28;20054;-50
2021/01/05 01:46:35;;;;;;;60.85;23.55;;;;;;;0.45;100.00;100967.06;4944393;28;20106;-50
2021/01/05 01:49:02;;;;;;;54.03;22.92;;;;;;;0.58;100.00;100968.78;4945933;28;20057;-46
2021/01/05 01:51:31;;;;;;;58.65;23.55;;;;;;;0.79;100.00;100969.38;4944229;28;20047;-50
2021/01/05 01:54:29;;;;;;;59.13;25.40;;;;;;;0.48;100.00;100962.25;4946998;28;20402;-52
2021/01/05 01:57:21;;;;;;;52.05;23.02;;;;;;;0.45;100.00;100962.88;4949890;28;20046;-52
2021/01/05 02:00:06;;;;;;;56.13;23.27;;;;;;;0.73;100.00;100955.59;4952497;28;20055;-50
2021/01/05 02:03:16;;;;;;;56.75;22.67;;;;;;;0.61;100.00;100956.41;4943858;28;20494;-50
2021/01/05 02:05:51;;;;;;;49.15;21.08;;;;;;;0.82;100.00;100959.53;4947461;28;20723;-49
2021/01/05 02:08:27;;;;;;;56.92;22.58;;;;;;;0.78;100.00;100955.91;4945832;28;20517;-50
2021/01/05 02:10:56;;;;;;;61.88;24.02;;;;;;;0.27;100.00;100961.59;4948233;28;20105;-47
2021/01/05 02:13:50;;;;;;;63.50;23.73;;;;;;;0.62;100.00;100955.63;4944675;28;20074;-51
2021/01/05 02:16:23;;;;;;;55.17;22.90;;;;;;;0.47;100.00;100947.91;4945056;28;20446;-52
2021/01/05 02:18:54;;;;;;;53.22;22.90;;;;;;;0.73;100.00;100955.59;4947608;28;20075;-50
2021/01/05 02:21:28;;;;;;;50.63;22.13;;;;;;;0.83;100.00;100954.59;4944933;28;20086;-53
2021/01/05 02:24:06;;;;;;;53.00;22.30;;;;;;;0.87;100.00;100955.66;4948305;28;20102;-53
2021/01/05 02:26:43;;;;;;;48.40;21.35;;;;;;;0.47;100.00;100947.91;4948615;28;20058;-54
2021/01/05 02:29:16;;;;;;;51.60;21.52;;;;;;;0.76;100.00;100948.25;4946282;28;20066;-49
2021/01/05 02:32:20;;;;;;;53.05;20.92;;;;;;;0.89;100.00;100949.09;4946032;28;20101;-53
2021/01/05 02:35:02;;;;;;;50.55;22.20;;;;;;;0.72;100.00;100942.91;4947408;28;20255;-53
2021/01/05 02:37:51;;;;;;;53.95;21.60;;;;;;;0.87;100.00;100943.94;4943920;28;20453;-49
2021/01/05 02:40:29;;;;;;;46.03;20.08;;;;;;;0.96;100.00;100948.75;4944653;28;20051;-49
2021/01/05 02:43:10;;;;;;;43.10;19.45;;;;;;;0.80;100.00;100949.34;4944010;28;20054;-50
2021/01/05 02:45:47;;;;;;;47.97;20.80;;;;;;;0.92;100.00;100945.13;4945015;28;20104;-48
2021/01/05 02:48:45;;;;;;;45.88;19.63;;;;;;;0.73;100.00;100945.50;4944744;28;20058;-53
2021/01/05 02:51:42;;;;;;;45.75;19.35;;;;;;;1.03;100.00;100950.91;4942236;28;20561;-48
2021/01/05 02:54:58;;;;;;;43.60;19.15;;;;;;;0.75;100.00;100938.97;4945682;28;20106;-51
2021/01/05 02:57:50;;;;;;;46.67;19.83;;;;;;;0.82;100.00;100940.22;4944358;28;20062;-51
2021/01/05 03:00:25;;;;;;;40.20;18.67;;;;;;;0.98;100.00;100944.69;4944482;28;20054;-52
2021/01/05 03:03:28;;;;;;;45.72;20.05;;;;;;;0.80;100.00;100933.34;4946756;28;20047;-49
2021/01/05 03:06:41;;;;;;;41.83;19.83;;;;;;;1.10;100.00;100937.06;4946484;28;20043;-52
2021/01/05 03:09:26;;;;;;;51.80;21.05;;;;;;;0.64;100.00;100936.44;4921757;28;20461;-47
2021/01/05 03:12:13;;;;;;;46.63;21.75;;;;;;;0.49;100.00;100933.75;4947278;28;20086;-49
2021/01/05 03:15:11;;;;;;;44.67;20.67;;;;;;;0.72;100.00;100928.66;4950558;28;20043;-51
2021/01/05 03:17:46;;;;;;;51.65;21.20;;;;;;;0.44;100.00;100925.00;4944670;28;20055;-48
2021/01/05 03:20:45;;;;;;;57.80;21.80;;;;;;;0.65;100.00;100921.47;4949674;28;20051;-48
2021/01/05 03:23:14;;;;;;;45.33;20.05;;;;;;;0.66;100.00;100928.25;4934243;28;20293;-51
2021/01/05 03:25:45;;;;;;;52.50;22.13;;;;;;;0.59;100.00;100927.69;4944909;28;20074;-52
2021/01/05 03:28:16;;;;;;;57.97;22.52;;;;;;;0.60;100.00;100926.94;4941970;28;20059;-49
2021/01/05 03:30:48;;;;;;;48.85;21.58;;;;;;;0.75;100.00;100923.84;4945058;28;20565;-49
2021/01/05 03:33:15;;;;;;;49.75;21.80;;;;;;;0.82;100.00;100922.59;4944075;28;20106;-48
2021/01/05 03:35:41;;;;;;;52.67;22.55;;;;;;;0.75;100.00;100930.53;4944614;28;20043;-48
2021/01/05 03:38:08;;;;;;;46.00;20.02;;;;;;;0.94;100.00;100928.47;4945335;28;20465;-52
2021/01/05 03:40:34;;;;;;;45.75;20.33;;;;;;;0.83;100.00;100924.34;4943310;28;20055;-48
2021/01/05 03:43:01;;;;;;;47.58;20.60;;;;;;;0.99;100.00;100929.66;4952046;28;20055;-53
2021/01/05 03:45:30;;;;;;;55.05;21.48;;;;;;;0.64;100.00;100929.75;4947800;28;20047;-49
2021/01/05 03:47:56;;;;;;;53.28;21.15;;;;;;;0.94;100.00;100918.38;4944918;28;20508;-52
2021/01/05 03:50:24;;;;;;;56.40;20.60;;;;;;;0.58;100.00;100914.22;4942963;28;20063;-53
2021/01/05 03:52:50;;;;;;;52.90;21.33;;;;;;;0.60;100.00;100911.81;4945991;28;20464;-48
2021/01/05 03:55:18;;;;;;;48.60;21.00;;;;;;;0.65;100.00;100921.47;4948019;28;20073;-48
2021/01/05 03:57:44;;;;;;;49.58;21.45;;;;;;;0.42;100.00;100912.31;4945720;28;20047;-49
2021/01/05 04:00:20;;;;;;;57.50;21.13;;;;;;;0.53;100.00;100914.69;4946203;28;20674;-46
2021/01/05 04:02:48;;;;;;;49.05;20.42;;;;;;;0.98;100.00;100909.41;4945731;28;20051;-51
2021/01/05 04:05:15;;;;;;;52.67;21.67;;;;;;;0.87;100.00;100917.88;4943797;28;20106;-48
2021/01/05 04:07:41;;;;;;;53.28;20.73;;;;;;;0.56;100.00;100920.81;4944049;28;20051;-46
2021/01/05 04:10:09;;;;;;;51.92;21.35;;;;;;;0.87;100.00;100916.22;4944833;28;20059;-51
2021/01/05 04:12:36;;;;;;;60.15;22.88;;;;;;;0.52;100.00;100918.84;4945200;28;20055;-47
2021/01/05 04:15:14;;;;;;;52.55;20.40;;;;;;;0.86;100.00;100918.63;4945149;28;20591;-49
2021/01/05 04:17:41;;;;;;;50.08;20.45;;;;;;;1.06;100.00;100918.31;4944771;28;20055;-50
2021/01/05 04:20:09;;;;;;;47.03;20.10;;;;;;;0.82;100.00;100917.53;4945089;28;20158;-55
2021/01/05 04:22:35;;;;;;;50.20;20.35;;;;;;;0.94;100.00;100915.88;4940357;28;20055;-48
2021/01/05 04:25:02;;;;;;;43.33;20.02;;;;;;;1.06;100.00;100913.28;4945845;28;20512;-47
2021/01/05 04:27:28;;;;;;;45.20;19.13;;;;;;;1.14;100.00;100912.16;4941802;28;20055;-51
2021/01/05 04:29:55;;;;;;;43.08;19.92;;;;;;;1.00;100.00;100915.41;4946345;28;20105;-47
2021/01/05 04:32:21;;;;;;;44.17;20.73;;;;;;;0.90;100.00;100916.44;4944330;28;20089;-47
2021/01/05 04:34:48;;;;;;;47.70;20.25;;;;;;;0.73;100.00;100911.88;4945442;28;20059;-49
2021/01/05 04:37:14;;;;;;;48.92;21.45;;;;;;;0.81;100.00;100917.47;4943256;28;20051;-49
2021/01/05 04:39:41;;;;;;;46.55;19.83;;;;;;;0.70;100.00;100917.59;4943808;28;20055;-52
2021/01/05 04:42:21;;;;;;;43.78;20.77;;;;;;;0.91;100.00;100927.38;4944802;28;20055;-49
2021/01/05 04:45:10;;;;;;;43.60;18.95;;;;;;;0.93;100.00;100928.38;4945763;28;20052;-50
2021/01/05 04:48:15;;;;;;;47.90;19.10;;;;;;;0.63;100.00;100929.66;4942402;28;20043;-49
2021/01/05 04:50:53;;;;;;;46.88;21.17;;;;;;;0.79;100.00;100924.94;4941259;28;20465;-52
2021/01/05 04:53:27;;;;;;;48.63;19.27;;;;;;;0.90;100.00;100924.00;4947405;28;20051;-53
2021/01/05 04:56:05;;;;;;;45.67;19.33;;;;;;;0.92;100.00;100929.13;4945700;28;20560;-51
2021/01/05 04:58:37;;;;;;;51.03;20.58;;;;;;;0.63;100.00;100919.59;4943644;28;20071;-51
2021/01/05 05:01:13;;;;;;;39.72;17.83;;;;;;;0.50;100.00;100916.22;4942813;28;20076;-48
2021/01/05 05:04:00;;;;;;;41.63;18.88;;;;;;;0.74;100.00;100912.00;4943281;28;20067;-52
2021/01/05 05:06:35;;;;;;;43.25;18.17;;;;;;;0.99;100.00;100908.63;4942586;28;20043;-50
2021/01/05 05:09:23;;;;;;;41.97;18.60;;;;;;;0.82;100.00;100917.53;4943489;28;20579;-53
2021/01/05 05:12:14;;;;;;;40.83;18.10;;;;;;;0.99;100.00;100911.13;4951987;28;20055;-50
2021/01/05 05:14:43;;;;;;;37.95;18.48;;;;;;;0.68;100.00;100916.59;4943477;28;20949;-50
2021/01/05 05:17:39;;;;;;;44.88;17.85;;;;;;;0.76;100.00;100912.09;4943270;28;20047;-50
2021/01/05 05:20:17;;;;;;;41.60;18.43;;;;;;;0.72;100.00;100916.06;4943002;28;20046;-49
2021/01/05 05:23:02;;;;;;;52.90;19.80;;;;;;;0.53;100.00;100919.72;4952587;28;20050;-51
2021/01/05 05:25:41;;;;;;;38.08;18.65;;;;;;;0.75;100.00;100916.28;4945057;28;20043;-54
2021/01/05 05:28:14;;;;;;;44.90;19.80;;;;;;;0.58;100.00;100925.97;4942832;28;20141;-47
2021/01/05 05:30:45;;;;;;;37.35;18.13;;;;;;;0.74;100.00;100921.22;4950336;28;20102;-52
2021/01/05 05:33:24;;;;;;;39.25;17.58;;;;;;;0.99;100.00;100918.69;4942541;28;20109;-52
2021/01/05 05:36:25;;;;;;;33.35;16.65;;;;;;;0.79;100.00;100921.50;4944792;28;20148;-50
2021/01/05 05:39:10;;;;;;;35.30;17.60;;;;;;;0.93;100.00;100929.25;4906238;29;20103;-48
2021/01/05 05:42:11;;;;;;;39.22;17.48;;;;;;;0.43;100.00;100929.16;4942487;28;20122;-51
2021/01/05 05:45:05;;;;;;;41.78;18.13;;;;;;;0.29;100.00;100929.84;4944779;28;20482;-51
2021/01/05 05:48:02;;;;;;;33.83;17.13;;;;;;;0.62;100.00;100936.34;4948358;28;20391;-50
2021/01/05 05:50:52;;;;;;;40.65;19.15;;;;;;;0.92;100.00;100932.53;4927361;28;20110;-48
2021/01/05 05:53:27;;;;;;;36.30;18.55;;;;;;;0.59;100.00;100936.13;4953126;28;20528;-47
2021/01/05 05:56:02;;;;;;;31.10;13.73;;;;;;;0.32;100.00;100936.72;4955189;28;20090;-50
2021/01/05 05:58:37;;;;;;;36.85;18.08;;;;;;;0.82;100.00;100939.38;4953136;28;20482;-49
2021/01/05 06:01:11;;;;;;;38.20;18.25;;;;;;;0.61;100.00;100939.66;4954439;28;20058;-49
2021/01/05 06:03:37;;;;;;;35.53;17.63;;;;;;;0.67;100.00;100942.59;4955193;28;20054;-50
2021/01/05 06:06:06;;;;;;;34.85;17.05;;;;;;;0.56;100.00;100937.59;4955728;28;20371;-51
2021/01/05 06:08:32;;;;;;;33.88;17.00;;;;;;;0.73;100.00;100930.41;4955765;28;20240;-51
2021/01/05 06:10:59;;;;;;;30.13;17.05;;;;;;;0.81;100.00;100935.97;4955859;28;20393;-51
2021/01/05 06:13:29;;;;;;;37.85;17.50;;;;;;;0.66;100.00;100934.94;4954359;28;20051;-49
2021/01/05 06:15:55;;;;;;;34.67;16.35;;;;;;;0.84;100.00;100930.28;4955431;28;20517;-49
2021/01/05 06:18:23;;;;;;;37.60;17.23;;;;;;;0.66;100.00;100933.28;4955549;28;20050;-49
2021/01/05 06:20:50;;;;;;;37.05;18.38;;;;;;;0.92;100.00;100931.66;4950943;28;20059;-50
2021/01/05 06:23:18;;;;;;;33.40;16.23;;;;;;;0.96;100.00;100921.00;4945141;28;20518;-47
2021/01/05 06:25:47;;;;;;;34.15;16.70;;;;;;;0.88;100.00;100923.03;4944753;28;20052;-49
2021/01/05 06:28:14;;;;;;;28.75;14.98;;;;;;;1.03;100.00;100925.72;4944990;28;20055;-50
2021/01/05 06:30:40;;;;;;;31.88;14.77;;;;;;;1.11;100.00;100923.69;4945604;28;20323;-50
2021/01/05 06:33:07;;;;;;;29.70;16.48;;;;;;;1.05;100.00;100918.22;4946068;28;20066;-46
2021/01/05 06:35:40;;;;;;;29.30;15.85;;;;;;;0.89;100.00;100916.34;4948935;28;20075;-50
2021/01/05 06:38:10;;;;;;;29.73;15.68;;;;;;;1.09;100.00;100920.19;4946336;28;20051;-49
2021/01/05 06:40:37;;;;;;;35.08;15.82;;;;;;;0.94;100.00;100920.03;4943926;28;20052;-46
2021/01/05 06:43:05;;;;;;;30.13;16.17;;;;;;;0.80;100.00;100915.72;4947275;28;20062;-47
2021/01/05 06:45:34;;;;;;;32.40;16.17;;;;;;;0.28;100.00;100919.66;4943614;28;20071;-50
2021/01/05 06:48:01;;;;;;;33.28;17.38;;;;;;;0.54;100.00;100927.38;4947468;28;20116;-45
2021/01/05 06:50:30;;;;;;;31.23;15.90;;;;;;;0.72;100.00;100922.75;4945590;28;20055;-46
2021/01/05 06:52:57;;;;;;;33.85;17.05;;;;;;;0.66;100.00;100928.25;4937780;28;20055;-47
2021/01/05 06:55:24;;;;;;;26.88;14.30;;;;;;;1.02;100.00;100924.84;4948871;28;20562;-45
2021/01/05 06:57:51;;;;;;;30.00;14.98;;;;;;;0.90;100.00;100918.09;4942817;28;20283;-48
2021/01/05 07:00:23;;;;;;;32.60;15.15;;;;;;;0.98;100.00;100924.53;4944668;28;20055;-47
2021/01/05 07:02:50;;;;;;;27.10;14.38;;;;;;;0.97;100.00;100930.31;4948869;28;20051;-46
2021/01/05 07:05:18;;;;;;;29.67;15.90;;;;;;;0.73;100.00;100919.44;4951031;28;20106;-49
2021/01/05 07:07:45;;;;;;;32.95;15.35;;;;;;;0.92;100.00;100934.16;4950268;28;20113;-49
2021/01/05 07:10:14;;;;;;;31.38;15.48;;;;;;;0.82;100.00;100930.16;4949939;28;20066;-48
2021/01/05 07:12:40;;;;;;;29.75;15.77;;;;;;;0.84;100.00;100928.63;4952038;28;20529;-50
2021/01/05 07:15:08;;;;;;;30.23;15.18;;;;;;;0.95;100.00;100929.34;4951420;28;20374;-46
2021/01/05 07:17:35;;;;;;;28.20;15.00;;;;;;;0.79;100.00;100932.47;4950831;28;20473;-49
2021/01/05 07:20:07;;;;;;;29.50;14.40;;;;;;;0.97;100.00;100930.31;4944516;28;20055;-45
2021/01/05 07:22:33;;;;;;;29.35;14.93;;;;;;;0.96;100.00;100931.97;4953785;28;20056;-45
2021/01/05 07:25:00;;;;;;;26.95;13.35;;;;;;;1.19;99.98;100935.16;4955917;28;20098;-44
2021/01/05 07:27:26;;;;;;;31.58;14.52;;;;;;;0.92;100.00;100937.56;4947913;28;20456;-45
2021/01/05 07:29:53;;;;;;;25.58;13.88;;;;;;;1.11;100.00;100939.72;4949303;28;20104;-43
2021/01/05 07:32:21;;;;;;;30.25;16.02;;;;;;;0.88;100.00;100935.63;4943859;28;20125;-46
2021/01/05 07:34:47;;;;;;;28.40;14.90;;;;;;;0.90;100.00;100934.06;4941964;28;20047;-45
2021/01/05 07:37:17;;;;;;;28.73;14.05;;;;;;;0.77;100.00;100936.53;4944214;28;20051;-45
2021/01/05 07:39:44;;;;;;;27.58;13.45;;;;;;;0.82;100.00;100942.75;4945064;28;20454;-50
2021/01/05 07:42:18;;;;;;;25.77;13.88;;;;;;;0.67;100.00;100944.22;4944692;28;20114;-44
2021/01/05 07:44:46;;;;;;;25.77;13.45;;;;;;;1.23;100.00;100945.56;4945099;28;20058;-45
2021/01/05 07:47:14;;;;;;;25.33;14.00;;;;;;;0.97;100.00;100941.31;4943496;28;20131;-49
2021/01/05 07:49:41;;;;;;;25.95;13.98;;;;;;;1.08;100.00;100944.53;4949895;28;20457;-47
2021/01/05 07:52:23;;;;;;;26.58;14.38;;;;;;;0.81;100.00;100942.66;4957232;28;20062;-46
2021/01/05 07:54:50;;;;;;;25.52;14.13;;;;;;;0.44;100.00;100945.16;4951740;28;20047;-45
2021/01/05 07:57:17;;;;;;;29.05;15.05;;;;;;;0.68;100.00;100949.38;4956426;28;20548;-48
2021/01/05 07:59:43;;;;;;;23.70;14.32;;;;;;;0.77;100.00;100957.56;4957966;28;20081;-47
2021/01/05 08:02:10;;;;;;;24.92;12.73;;;;;;;1.16;100.00;100948.47;4955397;28;20059;-46
2021/01/05 08:04:38;;;;;;;29.73;14.23;;;;;;;0.85;100.00;100955.59;4948694;28;20387;-45
2021/01/05 08:07:06;;;;;;;23.40;12.80;;;;;;;0.90;100.00;100948.34;4945304;28;20125;-49
2021/01/05 08:09:34;;;;;;;26.88;14.32;;;;;;;0.82;100.00;100947.78;4941883;28;20103;-46
2021/01/05 08:12:00;;;;;;;25.70;14.25;;;;;;;1.16;100.00;100950.09;4940709;28;20054;-47
2021/01/05 08:14:27;;;;;;;21.95;12.45;;;;;;;1.02;100.00;100956.75;4941435;28;20071;-47
2021/01/05 08:16:54;;;;;;;24.20;14.18;;;;;;;1.25;99.85;100949.06;4947864;28;20059;-46
2021/01/05 08:19:20;;;;;;;22.13;12.73;;;;;;;1.39;99.74;100955.03;4942605;28;20630;-47
2021/01/05 08:21:46;;;;;;;26.38;13.70;;;;;;;1.08;99.92;100957.16;4944946;28;20327;-47
2021/01/05 08:24:13;;;;;;;25.05;13.68;;;;;;;1.06;99.47;100956.16;4942867;28;20063;-46
2021/01/05 08:26:43;;;;;;;25.67;12.95;;;;;;;0.97;100.00;100953.91;4942641;28;20047;-45
2021/01/05 08:29:09;;;;;;;24.50;13.98;;;;;;;0.94;100.00;100956.22;4940719;28;20062;-45
2021/01/05 08:31:40;;;;;;;24.08;13.15;;;;;;;0.89;100.00;100955.03;4955846;28;20042;-46
2021/01/05 08:34:07;;;;;;;28.63;14.75;;;;;;;0.98;100.00;100959.81;4947828;28;20063;-46
2021/01/05 08:36:33;;;;;;;27.65;14.32;;;;;;;0.64;100.00;100962.53;4941256;28;20537;-47
2021/01/05 08:39:01;;;;;;;27.38;14.38;;;;;;;1.18;100.00;100963.69;4943738;28;20051;-45
2021/01/05 08:41:27;;;;;;;30.77;15.32;;;;;;;1.10;100.00;100957.25;4951187;28;20068;-47
2021/01/05 08:43:54;;;;;;;27.08;14.55;;;;;;;1.35;100.00;100954.72;4959535;28;20054;-45
2021/01/05 08:46:24;;;;;;;28.65;15.15;;;;;;;1.23;100.00;100959.81;4947099;28;20062;-46
2021/01/05 08:48:50;;;;;;;26.20;14.20;;;;;;;1.36;100.00;100962.41;4958404;28;20067;-46
2021/01/05 08:51:18;;;;;;;27.13;15.02;;;;;;;1.15;99.74;100960.94;4945952;28;20058;-46
2021/01/05 08:53:46;;;;;;;29.25;14.90;;;;;;;1.45;99.64;100957.97;4943059;28;20102;-45
2021/01/05 08:56:24;;;;;;;29.95;15.82;;;;;;;1.33;99.32;100962.19;4945214;28;20475;-47
2021/01/05 08:58:51;;;;;;;30.70;15.57;;;;;;;1.38;98.77;100963.34;4942555;28;20426;-49
2021/01/05 09:01:18;;;;;;;34.00;16.88;;;;;;;1.35;99.94;100947.16;4949286;28;20504;-46
2021/01/05 09:03:45;;;;;;;33.78;16.50;;;;;;;1.39;98.40;100950.00;4948543;28;20509;-47
2021/01/05 09:06:13;;;;;;;32.90;17.35;;;;;;;1.23;100.00;100949.72;4949807;28;20071;-49
2021/01/05 09:08:39;;;;;;;34.65;17.20;;;;;;;1.30;100.00;100946.00;4949518;28;20114;-44
2021/01/05 09:11:15;;;;;;;41.45;19.80;;;;;;;1.53;99.39;100944.22;4943721;28;20138;-48
2021/01/05 09:13:41;;;;;;;;;;;;;;;1.50;98.39;100945.66;4943574;28;20589;-46
2021/01/05 09:16:08;;;;;;;41.33;18.55;;;;;;;1.67;98.14;100937.53;4944653;28;20150;-48
2021/01/05 09:18:34;;;;;;;40.42;18.88;;;;;;;1.65;97.35;100941.59;4942001;28;20047;-45
2021/01/05 09:21:03;;;;;;;44.42;21.80;;;;;;;1.34;98.98;100945.38;4941027;28;20110;-47
2021/01/05 09:23:30;;;;;;;38.50;18.95;;;;;;;1.45;100.00;100947.88;4939522;28;20047;-46
2021/01/05 09:25:57;;;;;;;39.95;19.30;;;;;;;1.27;99.14;100936.56;4942230;28;20058;-45
2021/01/05 09:28:26;;;;;;;40.13;17.75;;;;;;;1.46;100.00;100943.69;4936263;28;20051;-47
2021/01/05 09:30:53;;;;;;;38.08;18.52;;;;;;;1.35;100.00;100945.50;4949523;28;20469;-46
2021/01/05 09:33:20;;;;;;;36.17;17.67;;;;;;;1.43;99.76;100943.47;4941436;28;20481;-45
2021/01/05 09:35:48;;;;;;;35.83;18.70;;;;;;;1.52;99.52;100947.47;4934556;28;20138;-47
2021/01/05 09:38:15;;;;;;;37.38;18.95;;;;;;;1.28;100.00;100945.88;4944243;28;20113;-46
2021/01/05 09:40:42;;;;;;;36.95;18.80;;;;;;;1.49;99.20;100944.78;4943971;28;20082;-47
2021/01/05 09:43:12;;;;;;;34.95;17.73;;;;;;;1.52;99.68;100946.59;4953930;28;20054;-51
2021/01/05 09:45:40;;;;;;;33.80;18.00;;;;;;;1.52;99.96;100954.19;4949174;28;20071;-46
2021/01/05 09:48:09;;;;;;;35.40;17.48;;;;;;;1.81;98.95;100942.59;4949359;28;20115;-46
2021/01/05 09:50:39;;;;;;;35.90;18.98;;;;;;;1.59;98.95;100942.84;4952220;28;20047;-45
2021/01/05 09:53:08;;;;;;;34.63;17.52;;;;;;;1.64;100.00;100933.94;4954706;28;20057;-50
2021/01/05 09:55:35;;;;;;;30.13;16.70;;;;;;;1.59;100.00;100928.59;4943167;28;20102;-50
2021/01/05 09:58:01;;;;;;;30.90;15.73;;;;;;;1.77;99.60;100932.31;4954163;28;20050;-45
2021/01/05 10:00:28;;;;;;;33.50;17.58;;;;;;;1.68;97.79;100930.84;4941482;28;20101;-45
2021/01/05 10:02:54;;;;;;;35.72;16.83;;;;;;;1.71;100.00;100931.91;4943485;28;20109;-45
2021/01/05 10:05:21;;;;;;;38.67;18.95;;;;;;;1.48;100.00;100925.38;4951764;28;20134;-45
2021/01/05 10:07:48;;;;;;;33.05;16.45;;;;;;;1.93;99.35;100933.28;4952445;28;20099;-46
2021/01/05 10:10:26;;;;;;;32.42;17.27;;;;;;;1.81;98.88;100932.50;4943141;28;20055;-50
2021/01/05 10:12:53;;;;;;;32.20;15.95;;;;;;;1.90;98.96;100928.91;4949524;28;20051;-48
2021/01/05 10:15:23;;;;;;;32.15;16.85;;;;;;;1.79;98.19;100919.75;4948462;28;20055;-47
2021/01/05 10:17:51;;;;;;;31.98;16.42;;;;;;;1.66;99.30;100914.69;4946822;28;20047;-47
2021/01/05 10:20:21;;;;;;;33.22;16.33;;;;;;;1.87;98.86;100911.03;4938031;28;20051;-45
2021/01/05 10:22:48;;;;;;;34.10;17.77;;;;;;;1.37;99.33;100915.34;4948858;28;20098;-44
2021/01/05 10:25:15;;;;;;;33.58;15.68;;;;;;;1.42;100.00;100906.41;4947429;28;20047;-44
2021/01/05 10:27:42;;;;;;;34.28;17.10;;;;;;;1.56;100.00;100908.19;4945491;28;20052;-46
2021/01/05 10:30:13;;;;;;;35.08;17.42;;;;;;;1.56;99.62;100908.19;4944152;28;20466;-46
2021/01/05 10:32:42;;;;;;;31.45;16.38;;;;;;;1.61;100.00;100905.97;4946589;28;20133;-50
2021/01/05 10:35:11;;;;;;;28.90;15.60;;;;;;;1.72;98.78;100912.59;4946209;28;20367;-50
2021/01/05 10:37:37;;;;;;;31.83;16.23;;;;;;;1.86;99.66;100911.81;4944109;28;20058;-45
2021/01/05 10:40:06;;;;;;;33.83;17.05;;;;;;;1.63;99.86;100904.44;4945109;28;20082;-45
2021/01/05 10:42:33;;;;;;;33.63;16.88;;;;;;;1.79;98.68;100908.00;4948571;28;20054;-44
2021/01/05 10:44:59;;;;;;;31.02;16.08;;;;;;;1.68;100.00;100909.00;4947527;28;20343;-47
2021/01/05 10:47:26;;;;;;;31.27;16.63;;;;;;;1.83;99.23;100915.78;4943486;28;20391;-45
2021/01/05 10:49:52;;;;;;;35.90;17.67;;;;;;;1.75;99.09;100907.72;4947076;28;20508;-49
2021/01/05 10:52:18;;;;;;;29.95;16.55;;;;;;;1.50;100.00;100905.28;4937856;28;20063;-44
2021/01/05 10:54:48;;;;;;;33.47;18.13;;;;;;;1.48;99.80;100906.84;4946505;28;20079;-45
2021/01/05 10:57:15;;;;;;;34.17;17.48;;;;;;;1.69;100.00;100905.69;4944378;28;20062;-46
2021/01/05 10:59:45;;;;;;;29.65;15.88;;;;;;;2.07;98.48;100907.25;4951209;28;20047;-49
2021/01/05 11:02:11;;;;;;;35.88;17.77;;;;;;;1.71;98.96;100895.66;4944266;28;20059;-45
2021/01/05 11:04:37;;;;;;;33.28;17.58;;;;;;;2.10;98.16;100902.41;4948014;28;20051;-46
2021/01/05 11:07:06;;;;;;;35.60;18.00;;;;;;;1.72;98.37;100893.28;4945950;28;20129;-47
2021/01/05 11:09:33;;;;;;;34.72;18.25;;;;;;;1.84;97.56;100888.09;4942741;28;20052;-51
2021/01/05 11:12:10;;;;;;;36.75;18.23;;;;;;;1.60;99.72;100889.94;4945715;28;20052;-49
2021/01/05 11:14:38;;;;;;;33.95;17.52;;;;;;;1.53;100.00;100887.81;4944690;28;20047;-45
2021/01/05 11:17:05;;;;;;;36.20;17.48;;;;;;;1.61;100.00;100893.34;4946919;28;20058;-45
2021/01/05 11:19:32;;;;;;;37.03;18.10;;;;;;;2.13;97.79;100892.50;4945389;28;20048;-51
2021/01/05 11:22:00;;;;;;;38.03;19.98;;;;;;;1.60;99.03;100891.59;4947962;28;20054;-48
2021/01/05 11:24:28;;;;;;;35.47;17.65;;;;;;;1.73;99.75;100881.53;4945193;28;20593;-48
2021/01/05 11:26:56;;;;;;;41.38;20.30;;;;;;;1.55;99.93;100881.22;4947793;28;20043;-45
2021/01/05 11:29:24;;;;;;;42.17;21.00;;;;;;;1.49;100.00;100888.38;4944145;28;20123;-47
2021/01/05 11:32:17;;;;;;;37.15;18.92;;;;;;;1.95;99.45;100881.25;4946622;28;20786;-45